sensor_id;sensor_type;location;lat;lon;timestamp;P1;durP1;ratioP1;P2;durP2;ratioP2
40367;SDS011;26075;43.320;21.920;2023-04-10T00:01:22;40.60;;;30.67;;
40367;SDS011;26075;43.320;21.920;2023-04-10T00:06:23;38.25;;;30.85;;
40367;SDS011;26075;43.320;21.920;2023-04-10T00:11:24;41.72;;;31.02;;
40367;SDS011;26075;43.320;21.920;2023-04-10T00:16:26;38.20;;;29.48;;
40367;SDS011;26075;43.320;21.920;2023-04-10T00:21:27;43.67;;;30.73;;
40367;SDS011;26075;43.320;21.920;2023-04-10T00:26:28;37.55;;;29.08;;
40367;SDS011;26075;43.320;21.920;2023-04-10T00:31:29;35.97;;;28.23;;
40367;SDS011;26075;43.320;21.920;2023-04-10T00:36:33;32.85;;;26.15;;
40367;SDS011;26075;43.320;21.920;2023-04-10T00:41:34;29.92;;;23.10;;
40367;SDS011;26075;43.320;21.920;2023-04-10T00:46:36;29.25;;;23.48;;
40367;SDS011;26075;43.320;21.920;2023-04-10T00:51:37;31.92;;;24.50;;
40367;SDS011;26075;43.320;21.920;2023-04-10T00:56:38;27.65;;;22.75;;
40367;SDS011;26075;43.320;21.920;2023-04-10T01:01:39;30.40;;;24.08;;
40367;SDS011;26075;43.320;21.920;2023-04-10T01:06:57;29.70;;;22.73;;
40367;SDS011;26075;43.320;21.920;2023-04-10T01:18:06;30.17;;;22.58;;
40367;SDS011;26075;43.320;21.920;2023-04-10T01:29:00;32.22;;;24.15;;
40367;SDS011;26075;43.320;21.920;2023-04-10T01:34:09;30.08;;;24.42;;
40367;SDS011;26075;43.320;21.920;2023-04-10T01:39:17;31.40;;;24.92;;
40367;SDS011;26075;43.320;21.920;2023-04-10T01:44:20;28.27;;;22.48;;
40367;SDS011;26075;43.320;21.920;2023-04-10T01:49:28;29.08;;;22.17;;
40367;SDS011;26075;43.320;21.920;2023-04-10T01:54:30;26.02;;;22.13;;
40367;SDS011;26075;43.320;21.920;2023-04-10T01:59:32;28.95;;;22.70;;
40367;SDS011;26075;43.320;21.920;2023-04-10T02:04:33;29.10;;;23.55;;
40367;SDS011;26075;43.320;21.920;2023-04-10T02:14:37;31.05;;;24.15;;
40367;SDS011;26075;43.320;21.920;2023-04-10T02:19:41;29.52;;;23.73;;
40367;SDS011;26075;43.320;21.920;2023-04-10T02:24:45;31.85;;;25.35;;
40367;SDS011;26075;43.320;21.920;2023-04-10T02:29:46;30.48;;;23.55;;
40367;SDS011;26075;43.320;21.920;2023-04-10T02:34:47;29.50;;;24.92;;
40367;SDS011;26075;43.320;21.920;2023-04-10T02:39:48;30.70;;;24.35;;
40367;SDS011;26075;43.320;21.920;2023-04-10T02:44:50;31.52;;;24.55;;
40367;SDS011;26075;43.320;21.920;2023-04-10T02:49:51;32.60;;;24.20;;
40367;SDS011;26075;43.320;21.920;2023-04-10T02:54:52;30.90;;;24.90;;
40367;SDS011;26075;43.320;21.920;2023-04-10T02:59:52;35.33;;;24.60;;
40367;SDS011;26075;43.320;21.920;2023-04-10T03:04:53;34.17;;;27.25;;
40367;SDS011;26075;43.320;21.920;2023-04-10T03:09:54;31.95;;;25.13;;
40367;SDS011;26075;43.320;21.920;2023-04-10T03:14:55;34.33;;;27.27;;
40367;SDS011;26075;43.320;21.920;2023-04-10T03:19:56;33.63;;;25.08;;
40367;SDS011;26075;43.320;21.920;2023-04-10T03:24:57;33.75;;;26.65;;
40367;SDS011;26075;43.320;21.920;2023-04-10T03:29:58;35.65;;;27.52;;
40367;SDS011;26075;43.320;21.920;2023-04-10T03:34:59;41.42;;;29.70;;
40367;SDS011;26075;43.320;21.920;2023-04-10T03:40:04;41.25;;;29.73;;
40367;SDS011;26075;43.320;21.920;2023-04-10T03:45:06;38.60;;;29.23;;
40367;SDS011;26075;43.320;21.920;2023-04-10T03:50:07;38.95;;;29.88;;
40367;SDS011;26075;43.320;21.920;2023-04-10T03:55:08;41.15;;;30.77;;
40367;SDS011;26075;43.320;21.920;2023-04-10T04:00:11;34.72;;;27.38;;
40367;SDS011;26075;43.320;21.920;2023-04-10T04:05:14;33.45;;;24.50;;
40367;SDS011;26075;43.320;21.920;2023-04-10T04:10:15;31.38;;;24.48;;
40367;SDS011;26075;43.320;21.920;2023-04-10T04:15:16;26.83;;;22.35;;
40367;SDS011;26075;43.320;21.920;2023-04-10T04:20:17;31.83;;;24.55;;
40367;SDS011;26075;43.320;21.920;2023-04-10T04:25:19;32.03;;;23.55;;
40367;SDS011;26075;43.320;21.920;2023-04-10T04:30:20;31.92;;;24.40;;
40367;SDS011;26075;43.320;21.920;2023-04-10T04:35:21;36.25;;;25.13;;
40367;SDS011;26075;43.320;21.920;2023-04-10T04:40:22;32.70;;;24.90;;
40367;SDS011;26075;43.320;21.920;2023-04-10T04:45:23;33.22;;;24.40;;
40367;SDS011;26075;43.320;21.920;2023-04-10T04:50:24;33.38;;;25.67;;
40367;SDS011;26075;43.320;21.920;2023-04-10T04:55:25;32.58;;;26.05;;
40367;SDS011;26075;43.320;21.920;2023-04-10T05:00:26;32.88;;;24.95;;
40367;SDS011;26075;43.320;21.920;2023-04-10T05:05:27;31.25;;;24.70;;
40367;SDS011;26075;43.320;21.920;2023-04-10T05:10:28;34.72;;;26.08;;
40367;SDS011;26075;43.320;21.920;2023-04-10T05:15:29;34.83;;;24.63;;
40367;SDS011;26075;43.320;21.920;2023-04-10T05:20:30;33.80;;;25.17;;
40367;SDS011;26075;43.320;21.920;2023-04-10T05:25:36;31.77;;;24.58;;
40367;SDS011;26075;43.320;21.920;2023-04-10T05:30:37;32.60;;;24.75;;
40367;SDS011;26075;43.320;21.920;2023-04-10T05:35:38;34.80;;;25.58;;
40367;SDS011;26075;43.320;21.920;2023-04-10T05:40:43;35.83;;;25.65;;
40367;SDS011;26075;43.320;21.920;2023-04-10T05:45:44;33.95;;;25.08;;
40367;SDS011;26075;43.320;21.920;2023-04-10T05:50:45;32.08;;;24.90;;
40367;SDS011;26075;43.320;21.920;2023-04-10T05:55:49;30.65;;;24.10;;
40367;SDS011;26075;43.320;21.920;2023-04-10T06:00:50;35.03;;;26.30;;
40367;SDS011;26075;43.320;21.920;2023-04-10T06:05:52;31.25;;;23.08;;
40367;SDS011;26075;43.320;21.920;2023-04-10T06:10:53;31.30;;;23.60;;
40367;SDS011;26075;43.320;21.920;2023-04-10T06:15:54;29.42;;;23.65;;
40367;SDS011;26075;43.320;21.920;2023-04-10T06:20:55;35.22;;;25.80;;
40367;SDS011;26075;43.320;21.920;2023-04-10T06:25:59;36.42;;;26.10;;
40367;SDS011;26075;43.320;21.920;2023-04-10T06:31:00;34.83;;;25.60;;
40367;SDS011;26075;43.320;21.920;2023-04-10T06:36:04;34.28;;;25.23;;
40367;SDS011;26075;43.320;21.920;2023-04-10T06:41:06;34.45;;;26.70;;
40367;SDS011;26075;43.320;21.920;2023-04-10T06:46:07;35.97;;;27.67;;
40367;SDS011;26075;43.320;21.920;2023-04-10T06:51:08;21.50;;;16.05;;
40367;SDS011;26075;43.320;21.920;2023-04-10T06:56:09;24.67;;;18.70;;
40367;SDS011;26075;43.320;21.920;2023-04-10T07:01:10;24.48;;;16.67;;
40367;SDS011;26075;43.320;21.920;2023-04-10T07:06:11;23.95;;;16.77;;
40367;SDS011;26075;43.320;21.920;2023-04-10T07:11:12;22.67;;;17.95;;
40367;SDS011;26075;43.320;21.920;2023-04-10T07:16:13;25.63;;;18.38;;
40367;SDS011;26075;43.320;21.920;2023-04-10T07:21:15;25.77;;;18.73;;
40367;SDS011;26075;43.320;21.920;2023-04-10T07:26:17;25.23;;;18.75;;
40367;SDS011;26075;43.320;21.920;2023-04-10T07:31:18;26.90;;;18.88;;
40367;SDS011;26075;43.320;21.920;2023-04-10T07:36:19;24.75;;;18.27;;
40367;SDS011;26075;43.320;21.920;2023-04-10T07:41:20;22.05;;;17.73;;
40367;SDS011;26075;43.320;21.920;2023-04-10T07:46:21;24.70;;;19.00;;
40367;SDS011;26075;43.320;21.920;2023-04-10T07:51:22;24.77;;;20.17;;
40367;SDS011;26075;43.320;21.920;2023-04-10T07:56:24;31.05;;;20.52;;
40367;SDS011;26075;43.320;21.920;2023-04-10T08:01:26;26.10;;;19.33;;
40367;SDS011;26075;43.320;21.920;2023-04-10T08:06:27;29.40;;;19.70;;
40367;SDS011;26075;43.320;21.920;2023-04-10T08:11:32;27.85;;;20.25;;
40367;SDS011;26075;43.320;21.920;2023-04-10T08:16:34;28.58;;;20.38;;
40367;SDS011;26075;43.320;21.920;2023-04-10T08:21:35;31.05;;;25.30;;
40367;SDS011;26075;43.320;21.920;2023-04-10T08:26:36;35.05;;;26.85;;
40367;SDS011;26075;43.320;21.920;2023-04-10T08:31:37;31.35;;;26.40;;
40367;SDS011;26075;43.320;21.920;2023-04-10T08:36:39;33.42;;;25.58;;
40367;SDS011;26075;43.320;21.920;2023-04-10T08:41:40;35.30;;;26.15;;
40367;SDS011;26075;43.320;21.920;2023-04-10T08:46:44;34.63;;;27.10;;
40367;SDS011;26075;43.320;21.920;2023-04-10T08:51:51;32.42;;;26.05;;
40367;SDS011;26075;43.320;21.920;2023-04-10T08:56:56;34.20;;;27.15;;
40367;SDS011;26075;43.320;21.920;2023-04-10T10:27:13;34.00;;;26.25;;
40367;SDS011;26075;43.320;21.920;2023-04-10T10:32:16;33.45;;;23.75;;
40367;SDS011;26075;43.320;21.920;2023-04-10T10:37:17;27.92;;;20.55;;
40367;SDS011;26075;43.320;21.920;2023-04-10T10:42:22;29.33;;;22.58;;
40367;SDS011;26075;43.320;21.920;2023-04-10T10:47:29;28.08;;;22.63;;
40367;SDS011;26075;43.320;21.920;2023-04-10T10:57:45;30.88;;;22.60;;
40367;SDS011;26075;43.320;21.920;2023-04-10T11:08:06;27.33;;;20.77;;
40367;SDS011;26075;43.320;21.920;2023-04-10T11:13:17;25.80;;;19.67;;
40367;SDS011;26075;43.320;21.920;2023-04-10T11:18:17;17.02;;;13.55;;
40367;SDS011;26075;43.320;21.920;2023-04-10T11:23:19;22.05;;;17.60;;
40367;SDS011;26075;43.320;21.920;2023-04-10T11:28:42;25.55;;;21.13;;
40367;SDS011;26075;43.320;21.920;2023-04-10T11:33:42;30.85;;;23.00;;
40367;SDS011;26075;43.320;21.920;2023-04-10T11:38:53;29.00;;;23.13;;
40367;SDS011;26075;43.320;21.920;2023-04-10T11:44:08;29.08;;;23.45;;
40367;SDS011;26075;43.320;21.920;2023-04-10T11:49:10;31.33;;;23.27;;
40367;SDS011;26075;43.320;21.920;2023-04-10T11:59:13;32.42;;;25.65;;
40367;SDS011;26075;43.320;21.920;2023-04-10T12:04:19;28.85;;;24.10;;
40367;SDS011;26075;43.320;21.920;2023-04-10T12:09:21;30.75;;;23.92;;
40367;SDS011;26075;43.320;21.920;2023-04-10T12:14:22;28.27;;;24.15;;
40367;SDS011;26075;43.320;21.920;2023-04-10T12:19:23;30.33;;;24.05;;
40367;SDS011;26075;43.320;21.920;2023-04-10T12:24:44;24.60;;;21.40;;
40367;SDS011;26075;43.320;21.920;2023-04-10T12:29:48;20.98;;;15.70;;
40367;SDS011;26075;43.320;21.920;2023-04-10T12:34:50;14.00;;;12.18;;
40367;SDS011;26075;43.320;21.920;2023-04-10T12:39:52;16.10;;;12.70;;
40367;SDS011;26075;43.320;21.920;2023-04-10T12:45:05;19.25;;;16.85;;
40367;SDS011;26075;43.320;21.920;2023-04-10T12:50:09;22.27;;;18.00;;
40367;SDS011;26075;43.320;21.920;2023-04-10T12:55:13;26.90;;;17.77;;
40367;SDS011;26075;43.320;21.920;2023-04-10T13:00:15;19.55;;;16.63;;
40367;SDS011;26075;43.320;21.920;2023-04-10T13:05:17;18.63;;;15.07;;
40367;SDS011;26075;43.320;21.920;2023-04-10T13:10:20;21.95;;;15.88;;
40367;SDS011;26075;43.320;21.920;2023-04-10T13:15:23;21.65;;;14.60;;
40367;SDS011;26075;43.320;21.920;2023-04-10T13:20:24;24.17;;;15.98;;
40367;SDS011;26075;43.320;21.920;2023-04-10T13:25:25;17.83;;;14.45;;
40367;SDS011;26075;43.320;21.920;2023-04-10T13:30:26;21.27;;;16.65;;
40367;SDS011;26075;43.320;21.920;2023-04-10T13:35:28;21.17;;;15.15;;
40367;SDS011;26075;43.320;21.920;2023-04-10T13:40:29;21.45;;;15.98;;
40367;SDS011;26075;43.320;21.920;2023-04-10T13:45:30;18.92;;;15.35;;
40367;SDS011;26075;43.320;21.920;2023-04-10T13:50:31;20.40;;;16.98;;
40367;SDS011;26075;43.320;21.920;2023-04-10T13:55:32;20.60;;;16.23;;
40367;SDS011;26075;43.320;21.920;2023-04-10T14:00:35;18.95;;;15.93;;
40367;SDS011;26075;43.320;21.920;2023-04-10T14:05:36;24.75;;;17.20;;
40367;SDS011;26075;43.320;21.920;2023-04-10T14:10:37;18.73;;;15.68;;
40367;SDS011;26075;43.320;21.920;2023-04-10T14:15:38;19.90;;;15.27;;
40367;SDS011;26075;43.320;21.920;2023-04-10T14:20:41;21.10;;;15.45;;
40367;SDS011;26075;43.320;21.920;2023-04-10T14:25:41;18.38;;;13.02;;
40367;SDS011;26075;43.320;21.920;2023-04-10T14:30:46;16.08;;;13.02;;
40367;SDS011;26075;43.320;21.920;2023-04-10T14:35:48;14.35;;;11.60;;
40367;SDS011;26075;43.320;21.920;2023-04-10T14:40:48;13.73;;;10.65;;
40367;SDS011;26075;43.320;21.920;2023-04-10T14:45:50;14.40;;;10.88;;
40367;SDS011;26075;43.320;21.920;2023-04-10T14:50:51;14.77;;;10.18;;
40367;SDS011;26075;43.320;21.920;2023-04-10T14:55:52;12.25;;;9.85;;
40367;SDS011;26075;43.320;21.920;2023-04-10T15:00:53;12.38;;;10.23;;
40367;SDS011;26075;43.320;21.920;2023-04-10T15:05:57;13.65;;;10.13;;
40367;SDS011;26075;43.320;21.920;2023-04-10T15:10:59;13.43;;;10.03;;
40367;SDS011;26075;43.320;21.920;2023-04-10T15:16:00;12.73;;;9.73;;
40367;SDS011;26075;43.320;21.920;2023-04-10T15:21:02;9.45;;;8.45;;
40367;SDS011;26075;43.320;21.920;2023-04-10T15:26:03;11.55;;;8.05;;
40367;SDS011;26075;43.320;21.920;2023-04-10T15:31:04;11.70;;;8.60;;
40367;SDS011;26075;43.320;21.920;2023-04-10T15:36:05;11.52;;;8.35;;
40367;SDS011;26075;43.320;21.920;2023-04-10T15:41:07;11.65;;;9.30;;
40367;SDS011;26075;43.320;21.920;2023-04-10T15:46:12;11.07;;;8.68;;
40367;SDS011;26075;43.320;21.920;2023-04-10T15:51:14;12.38;;;9.45;;
40367;SDS011;26075;43.320;21.920;2023-04-10T15:56:14;11.00;;;8.88;;
40367;SDS011;26075;43.320;21.920;2023-04-10T16:01:16;13.35;;;10.05;;
40367;SDS011;26075;43.320;21.920;2023-04-10T16:06:17;10.32;;;8.48;;
40367;SDS011;26075;43.320;21.920;2023-04-10T16:11:18;11.00;;;9.43;;
40367;SDS011;26075;43.320;21.920;2023-04-10T16:16:19;10.50;;;8.60;;
40367;SDS011;26075;43.320;21.920;2023-04-10T16:21:20;9.57;;;8.38;;
40367;SDS011;26075;43.320;21.920;2023-04-10T16:26:20;9.80;;;7.95;;
40367;SDS011;26075;43.320;21.920;2023-04-10T16:31:21;10.30;;;8.45;;
40367;SDS011;26075;43.320;21.920;2023-04-10T16:36:22;13.52;;;9.63;;
40367;SDS011;26075;43.320;21.920;2023-04-10T16:41:23;12.68;;;9.38;;
40367;SDS011;26075;43.320;21.920;2023-04-10T16:46:25;14.45;;;10.00;;
40367;SDS011;26075;43.320;21.920;2023-04-10T16:51:26;12.55;;;10.25;;
40367;SDS011;26075;43.320;21.920;2023-04-10T16:56:27;14.27;;;11.60;;
40367;SDS011;26075;43.320;21.920;2023-04-10T17:01:28;14.65;;;11.63;;
40367;SDS011;26075;43.320;21.920;2023-04-10T17:06:29;12.85;;;11.27;;
40367;SDS011;26075;43.320;21.920;2023-04-10T17:11:30;14.02;;;11.68;;
40367;SDS011;26075;43.320;21.920;2023-04-10T17:16:31;15.07;;;12.32;;
40367;SDS011;26075;43.320;21.920;2023-04-10T17:21:32;16.77;;;12.82;;
40367;SDS011;26075;43.320;21.920;2023-04-10T17:26:33;17.15;;;13.02;;
40367;SDS011;26075;43.320;21.920;2023-04-10T17:31:34;19.80;;;13.75;;
40367;SDS011;26075;43.320;21.920;2023-04-10T17:36:36;16.92;;;12.07;;
40367;SDS011;26075;43.320;21.920;2023-04-10T17:41:37;15.15;;;12.80;;
40367;SDS011;26075;43.320;21.920;2023-04-10T17:46:38;13.77;;;11.52;;
40367;SDS011;26075;43.320;21.920;2023-04-10T17:51:39;15.73;;;12.10;;
40367;SDS011;26075;43.320;21.920;2023-04-10T17:56:40;15.90;;;12.48;;
40367;SDS011;26075;43.320;21.920;2023-04-10T18:01:42;14.18;;;11.40;;
40367;SDS011;26075;43.320;21.920;2023-04-10T18:06:43;14.80;;;11.40;;
40367;SDS011;26075;43.320;21.920;2023-04-10T18:11:44;14.95;;;11.90;;
40367;SDS011;26075;43.320;21.920;2023-04-10T18:16:47;14.05;;;10.90;;
40367;SDS011;26075;43.320;21.920;2023-04-10T18:21:48;15.32;;;12.30;;
40367;SDS011;26075;43.320;21.920;2023-04-10T18:26:50;17.55;;;13.23;;
40367;SDS011;26075;43.320;21.920;2023-04-10T18:31:51;15.80;;;12.73;;
40367;SDS011;26075;43.320;21.920;2023-04-10T18:36:52;16.48;;;12.43;;
40367;SDS011;26075;43.320;21.920;2023-04-10T18:41:54;15.30;;;12.43;;
40367;SDS011;26075;43.320;21.920;2023-04-10T18:46:59;17.17;;;13.00;;
40367;SDS011;26075;43.320;21.920;2023-04-10T18:52:00;15.82;;;12.63;;
40367;SDS011;26075;43.320;21.920;2023-04-10T18:57:01;12.50;;;11.20;;
40367;SDS011;26075;43.320;21.920;2023-04-10T19:02:02;15.55;;;12.88;;
40367;SDS011;26075;43.320;21.920;2023-04-10T19:07:03;14.43;;;12.77;;
40367;SDS011;26075;43.320;21.920;2023-04-10T19:12:04;16.50;;;13.40;;
40367;SDS011;26075;43.320;21.920;2023-04-10T19:17:05;17.55;;;13.10;;
40367;SDS011;26075;43.320;21.920;2023-04-10T19:22:06;25.67;;;17.33;;
40367;SDS011;26075;43.320;21.920;2023-04-10T19:27:07;16.42;;;13.20;;
40367;SDS011;26075;43.320;21.920;2023-04-10T19:32:08;17.85;;;14.18;;
40367;SDS011;26075;43.320;21.920;2023-04-10T19:37:09;18.92;;;14.63;;
40367;SDS011;26075;43.320;21.920;2023-04-10T19:42:10;20.23;;;15.70;;
40367;SDS011;26075;43.320;21.920;2023-04-10T19:47:12;20.55;;;14.60;;
40367;SDS011;26075;43.320;21.920;2023-04-10T19:52:13;16.45;;;12.82;;
40367;SDS011;26075;43.320;21.920;2023-04-10T19:57:14;16.55;;;13.52;;
40367;SDS011;26075;43.320;21.920;2023-04-10T20:02:15;16.77;;;13.48;;
40367;SDS011;26075;43.320;21.920;2023-04-10T20:07:16;17.80;;;14.35;;
40367;SDS011;26075;43.320;21.920;2023-04-10T20:12:17;15.35;;;13.02;;
40367;SDS011;26075;43.320;21.920;2023-04-10T20:17:18;16.60;;;13.23;;
40367;SDS011;26075;43.320;21.920;2023-04-10T20:22:20;16.58;;;12.65;;
40367;SDS011;26075;43.320;21.920;2023-04-10T20:27:21;20.30;;;11.43;;
40367;SDS011;26075;43.320;21.920;2023-04-10T20:32:23;19.60;;;13.50;;
40367;SDS011;26075;43.320;21.920;2023-04-10T20:37:24;16.40;;;12.50;;
40367;SDS011;26075;43.320;21.920;2023-04-10T20:42:25;18.30;;;13.07;;
40367;SDS011;26075;43.320;21.920;2023-04-10T20:47:27;13.90;;;11.80;;
40367;SDS011;26075;43.320;21.920;2023-04-10T20:52:27;16.38;;;12.80;;
40367;SDS011;26075;43.320;21.920;2023-04-10T20:57:29;17.08;;;12.85;;
40367;SDS011;26075;43.320;21.920;2023-04-10T21:02:30;16.02;;;12.02;;
40367;SDS011;26075;43.320;21.920;2023-04-10T21:07:30;15.48;;;12.35;;
40367;SDS011;26075;43.320;21.920;2023-04-10T21:12:31;18.05;;;12.27;;
40367;SDS011;26075;43.320;21.920;2023-04-10T21:17:32;16.30;;;12.63;;
40367;SDS011;26075;43.320;21.920;2023-04-10T21:22:33;16.90;;;12.40;;
40367;SDS011;26075;43.320;21.920;2023-04-10T21:27:34;14.57;;;11.57;;
40367;SDS011;26075;43.320;21.920;2023-04-10T21:32:36;15.50;;;11.90;;
40367;SDS011;26075;43.320;21.920;2023-04-10T21:37:37;14.73;;;11.50;;
40367;SDS011;26075;43.320;21.920;2023-04-10T21:42:38;15.90;;;12.43;;
40367;SDS011;26075;43.320;21.920;2023-04-10T21:47:39;16.90;;;12.98;;
40367;SDS011;26075;43.320;21.920;2023-04-10T21:52:40;15.95;;;12.80;;
40367;SDS011;26075;43.320;21.920;2023-04-10T21:57:41;16.85;;;13.02;;
40367;SDS011;26075;43.320;21.920;2023-04-10T22:02:42;17.48;;;13.90;;
40367;SDS011;26075;43.320;21.920;2023-04-10T22:07:43;21.58;;;14.32;;
40367;SDS011;26075;43.320;21.920;2023-04-10T22:12:44;18.83;;;13.15;;
40367;SDS011;26075;43.320;21.920;2023-04-10T22:17:45;17.40;;;12.35;;
40367;SDS011;26075;43.320;21.920;2023-04-10T22:22:46;16.33;;;12.43;;
40367;SDS011;26075;43.320;21.920;2023-04-10T22:27:47;15.63;;;12.57;;
40367;SDS011;26075;43.320;21.920;2023-04-10T22:32:48;16.42;;;13.27;;
40367;SDS011;26075;43.320;21.920;2023-04-10T22:37:49;16.08;;;13.38;;
40367;SDS011;26075;43.320;21.920;2023-04-10T22:42:50;18.38;;;13.30;;
40367;SDS011;26075;43.320;21.920;2023-04-10T22:47:51;18.25;;;13.02;;
40367;SDS011;26075;43.320;21.920;2023-04-10T22:52:52;19.02;;;14.20;;
40367;SDS011;26075;43.320;21.920;2023-04-10T22:57:53;17.00;;;13.02;;
40367;SDS011;26075;43.320;21.920;2023-04-10T23:02:54;17.60;;;14.57;;
40367;SDS011;26075;43.320;21.920;2023-04-10T23:07:55;17.77;;;14.90;;
40367;SDS011;26075;43.320;21.920;2023-04-10T23:12:56;17.92;;;14.48;;
40367;SDS011;26075;43.320;21.920;2023-04-10T23:17:57;18.15;;;14.73;;
40367;SDS011;26075;43.320;21.920;2023-04-10T23:22:57;19.63;;;14.65;;
40367;SDS011;26075;43.320;21.920;2023-04-10T23:27:58;18.73;;;15.15;;
40367;SDS011;26075;43.320;21.920;2023-04-10T23:32:59;19.20;;;16.20;;
40367;SDS011;26075;43.320;21.920;2023-04-10T23:38:01;20.45;;;16.08;;
40367;SDS011;26075;43.320;21.920;2023-04-10T23:43:02;22.52;;;17.27;;
40367;SDS011;26075;43.320;21.920;2023-04-10T23:48:03;21.63;;;16.17;;
40367;SDS011;26075;43.320;21.920;2023-04-10T23:53:04;21.98;;;17.08;;
40367;SDS011;26075;43.320;21.920;2023-04-10T23:58:07;22.33;;;17.13;;
